This is the latest recevied weather packets stored in our database for station/object VK3XEM-13. If no packets are shown the sender has not sent any weather packets the latest 10 day(s).
| Time | Temp. | Humidity | Pressure | Rain* | Wind** | Luminosity | Snow |
|---|---|---|---|---|---|---|---|
| 1777453334 | 16.67° C | 79% | 1025.3 hPa | 0 mm | - | 0 W/m² | - |
| 1777452434 | 17.22° C | 77% | 1025.3 hPa | 0 mm | - | 0 W/m² | - |
| 1777451534 | 18.33° C | 75% | 1024.9 hPa | 0 mm | - | 0 W/m² | - |
| 1777450634 | 18.89° C | 72% | 1024.6 hPa | 0 mm | - | 0 W/m² | - |
| 1777449735 | 19.44° C | 71% | 1024.6 hPa | 0 mm | - | 0 W/m² | - |
| 1777448834 | 20.56° C | 67% | 1024.6 hPa | 0 mm | - | 1 W/m² | - |
| 1777447934 | 21.11° C | 65% | 1024.6 hPa | 0 mm | - | 5 W/m² | - |
| 1777447034 | 22.22° C | 59% | 1024.6 hPa | 0 mm | - | 12 W/m² | - |
| 1777446134 | 23.33° C | 51% | 1024.6 hPa | 0 mm | - | 26 W/m² | - |
| 1777445234 | 23.89° C | 50% | 1024.2 hPa | 0 mm | - | 40 W/m² | - |
| 1777444334 | 24.44° C | 47% | 1024.2 hPa | 0 mm | - | 56 W/m² | - |
| 1777443434 | 24.44° C | 47% | 1024.2 hPa | 0 mm | - | 88 W/m² | - |
| 1777442534 | 24.44° C | 46% | 1024.6 hPa | 0 mm | - | 102 W/m² | - |
| 1777441635 | 25° C | 46% | 1024.6 hPa | 0 mm | - | 136 W/m² | - |
| 1777440734 | 24.44° C | 47% | 1024.6 hPa | 0 mm | - | 179 W/m² | - |
| 1777439834 | 25° C | 46% | 1024.6 hPa | 0 mm | - | 114 W/m² | - |
| 1777438935 | 25.56° C | 44% | 1024.6 hPa | 0 mm | - | 167 W/m² | - |
| 1777438034 | 24.44° C | 47% | 1024.6 hPa | 0 mm | - | 330 W/m² | - |
| 1777437134 | 24.44° C | 48% | 1024.6 hPa | 0 mm | - | 391 W/m² | - |
| 1777421834 | 13.33° C | 89% | 1027.3 hPa | 0 mm | - | 104 W/m² | - |
| 1777420934 | 13.33° C | 89% | 1027.3 hPa | 0 mm | - | 104 W/m² | - |
| 1777420035 | 13.33° C | 89% | 1027.3 hPa | 0 mm | - | 104 W/m² | - |
| 1777419135 | 13.33° C | 89% | 1027.3 hPa | 0 mm | - | 104 W/m² | - |
| 1777418235 | 13.33° C | 89% | 1027.3 hPa | 0 mm | - | 104 W/m² | - |
| 1777417334 | 13.33° C | 89% | 1027.3 hPa | 0 mm | - | 104 W/m² | - |
* Rain latest hour (hover to see other rain measurements)
** Current wind speed in m/s (hover to see current wind gust speed)